SQ5AM-13 Weather Reports


Display with metric or nautical units.
time (UTC)temp
F
wind
direction
speed
MPH
gust
MPH
rain 1hr
in
rain 24hr
in
rain mn
in
humidity
%
barometer
mb
20221204184503 34 86 11.0 17.0 0.00 0.00 0.00 87 1029.3
20221204183003 34 82 12.0 20.0 0.00 0.00 0.00 87 1029.3
20221204181505 34 90 17.0 18.0 0.00 0.00 0.00 87 1029.1
20221204180003 34 90 10.0 15.0 0.00 0.00 0.00 87 1029.1
20221204174503 34 87 9.0 14.0 0.00 0.00 0.00 87 1029.2
20221204173003 34 83 16.0 21.0 0.00 0.00 0.00 87 1029.4
20221204171715 34 85 17.0 23.0 0.00 0.00 0.00 87 1029.6
20221204170003 34 81 13.0 21.0 0.00 0.01 0.00 87 1029.5
20221204164505 34 89 16.0 21.0 0.00 0.01 0.00 87 1029.3
20221204163005 34 92 13.0 18.0 0.00 0.01 0.00 87 1029.3
20221204161716 35 85 11.0 18.0 0.00 0.01 0.00 87 1029.6
20221204160215 35 84 13.0 17.0 0.00 0.01 0.00 87 1029.6
20221204154505 35 88 11.0 13.0 0.00 0.01 0.00 87 1029.7
20221204153003 35 72 12.0 15.0 0.00 0.01 0.00 87 1029.6
20221204151716 35 75 13.0 21.0 0.00 0.01 0.00 87 1029.7
20221204150215 35 84 13.0 18.0 0.00 0.01 0.00 87 1029.7
20221204144714 35 80 11.0 14.0 0.00 0.01 0.00 88 1029.7
20221204143005 35 90 10.0 16.0 0.00 0.01 0.00 87 1029.5
20221204141505 36 90 10.0 15.0 0.00 0.01 0.00 87 1029.6
20221204140216 35 82 11.0 15.0 0.00 0.01 0.00 88 1029.4
20221204134504 35 88 9.0 20.0 0.00 0.01 0.00 88 1029.1
20221204133003 35 73 11.0 17.0 0.00 0.01 0.00 88 1029.1
20221204131503 35 84 8.0 11.0 0.00 0.01 0.00 88 1029.3
20221204130005 35 80 14.0 21.0 0.00 0.01 0.00 88 1029.3
20221204124716 35 80 10.0 14.0 0.00 0.01 0.00 88 1029.2
20221204123005 35 87 13.0 17.0 0.00 0.01 0.00 88 1029.1
20221204121505 35 93 10.0 16.0 0.00 0.01 0.00 88 1029.5
20221204120003 35 92 15.0 21.0 0.00 0.01 0.00 88 1029.5
20221204114716 35 83 11.0 15.0 0.00 0.01 0.00 88 1029.3
20221204113215 35 90 13.0 19.0 0.00 0.01 0.00 88 1029.3
20221204111714 35 82 13.0 18.0 0.00 0.01 0.00 88 1029.5
20221204110004 35 71 10.0 16.0 0.00 0.01 0.00 88 1029.6
20221204104717 35 94 11.0 15.0 0.00 0.01 0.00 88 1029.7
20221204103216 35 81 10.0 15.0 0.00 0.01 0.00 89 1030.0
20221204101715 34 87 9.0 13.0 0.00 0.01 0.00 89 1029.9
20221204100213 34 70 13.0 16.0 0.00 0.01 0.00 89 1030.1
20221204094505 34 85 10.0 13.0 0.00 0.01 0.00 89 1030.2
20221204093003 34 92 9.0 11.0 0.00 0.01 0.00 90 1030.4
20221204091503 34 82 10.0 13.0 0.00 0.01 0.00 90 1030.3
20221204090005 34 81 8.0 11.0 0.00 0.01 0.00 90 1030.3
20221204084713 34 88 11.0 15.0 0.00 0.01 0.00 90 1030.4
20221204083003 34 83 9.0 14.0 0.00 0.01 0.00 90 1030.4
20221204081503 34 87 7.0 15.0 0.00 0.01 0.00 90 1030.4
20221204080215 34 91 7.0 11.0 0.00 0.01 0.00 91 1030.6
20221204074719 34 84 11.0 16.0 0.00 0.01 0.00 91 1030.4
20221204073218 34 89 10.0 17.0 0.00 0.01 0.00 91 1030.2
20221204071716 34 90 6.0 9.0 0.00 0.01 0.00 92 1030.2
20221204070215 34 79 8.0 15.0 0.00 0.01 0.00 92 1030.4
20221204064714 34 94 6.0 10.0 0.00 0.01 0.00 92 1030.2
20221204063218 34 97 11.0 15.0 0.00 0.01 0.00 92 1030.1
20221204061717 34 78 8.0 11.0 0.00 0.01 0.00 92 1030.0
20221204060216 34 84 9.0 16.0 0.00 0.01 0.00 92 1029.9
20221204054715 34 86 12.0 20.0 0.00 0.01 0.00 93 1029.9
20221204053214 34 78 9.0 13.0 0.00 0.01 0.00 94 1029.7
20221204051503 33 79 9.0 13.0 0.00 0.01 0.00 95 1029.8
20221204050217 33 78 9.0 12.0 0.00 0.01 0.00 95 1029.8
20221204044716 34 90 10.0 15.0 0.00 0.01 0.00 95 1029.4
20221204043003 34 76 10.0 15.0 0.00 0.01 0.00 94 1029.5
20221204041505 34 77 11.0 15.0 0.00 0.01 0.00 94 1029.6
20221204040004 34 88 7.0 13.0 0.00 0.01 0.00 95 1029.6
20221204034716 34 80 10.0 14.0 0.00 0.01 0.00 95 1029.7
20221204033003 34 79 10.0 13.0 0.00 0.01 0.00 94 1029.7
20221204031503 34 105 14.0 17.0 0.00 0.01 0.00 94 1029.8
20221204030213 34 103 12.0 17.0 0.00 0.01 0.00 94 1029.9
20221204024503 34 86 10.0 12.0 0.00 0.01 0.00 95 1029.9
20221204023216 34 101 9.0 14.0 0.00 0.01 0.00 95 1029.9
20221204021715 34 88 10.0 15.0 0.00 0.01 0.00 95 1030.0
20221204020213 34 95 10.0 13.0 0.00 0.01 0.00 95 1030.0
20221204014712 34 81 10.0 17.0 0.00 0.01 0.00 95 1030.2
20221204013216 34 85 8.0 12.0 0.00 0.01 0.00 95 1030.1
20221204011715 34 73 10.0 15.0 0.00 0.01 0.00 95 1030.0
20221204010003 34 88 10.0 15.0 0.00 0.01 0.00 95 1029.9
20221204004718 34 80 11.0 15.0 0.00 0.01 0.00 95 1030.0
20221204003003 34 81 8.0 11.0 0.00 0.01 0.00 95 1030.1
20221204001716 34 83 12.0 16.0 0.00 0.01 0.00 95 1030.0
20221204000005 34 81 11.0 17.0 0.00 0.01 0.00 95 1030.1
20221203234714 34 87 9.0 14.0 0.00 0.01 0.00 95 1030.0
20221203233003 34 91 12.0 17.0 0.00 0.01 0.00 95 1030.2
20221203231716 34 80 11.0 15.0 0.00 0.01 0.00 95 1030.4
20221203230220 34 99 9.0 12.0 0.00 0.01 0.00 95 1030.3
20221203224505 34 92 11.0 16.0 0.00 0.01 0.01 94 1030.4
20221203223003 34 86 10.0 14.0 0.00 0.01 0.01 94 1030.4
20221203221504 34 81 9.0 13.0 0.00 0.01 0.01 93 1030.3
20221203220003 34 75 8.0 12.0 0.00 0.01 0.01 92 1030.5
20221203214503 34 83 8.0 13.0 0.00 0.01 0.01 92 1030.2
20221203213005 34 79 9.0 14.0 0.00 0.01 0.01 92 1030.4
20221203211505 34 80 8.0 10.0 0.00 0.01 0.01 91 1030.4
20221203210217 35 82 6.0 10.0 0.00 0.01 0.01 91 1030.3
20221203204716 35 97 6.0 9.0 0.00 0.01 0.01 91 1030.0
20221203203214 35 81 8.0 11.0 0.00 0.01 0.01 91 1030.0
20221203201503 35 69 7.0 10.0 0.00 0.01 0.01 91 1030.2
20221203200003 35 89 5.0 8.0 0.00 0.01 0.01 91 1030.4
20221203194503 34 82 6.0 8.0 0.00 0.01 0.01 91 1030.2
20221203193003 34 84 7.0 10.0 0.00 0.01 0.01 92 1030.2
20221203191503 34 93 8.0 11.0 0.00 0.01 0.01 93 1030.3